ADDS METAR Data INFO
IDs: Format: Raw Decoded Include TAF

Data at: 0027 UTC 17 Dec 2017

KGKY 170010Z 12007KT 10SM -RA FEW023 BKN035 OVC085 07/06 A3005 RMK AO2 P0001 T00670061 $
KGKY 162353Z 18006KT 10SM -RA SCT022 BKN027 OVC055 07/06 A3008 RMK AO2 SLP187 P0003 60008 T00720061 10156 20067 53011 $
KGKY 162253Z 13008KT 8SM -RA SCT038 BKN049 OVC060 07/06 A3005 RMK AO2 SLP178 P0004 T00720056 $
KGKY 162153Z 17012G18KT 10SM -RA OVC075 09/04 A3006 RMK AO2 RAB2057 SLP179 P0001 T00890044 $
KGKY 162053Z 16014KT 10SM OVC065 12/01 A3005 RMK AO2 SLP174 T01220006 56014 $
KGKY 161953Z 17014G19KT 10SM OVC070 14/M01 A3005 RMK AO2 SLP174 T01391011 $
KGKY 161853Z 16012KT 10SM BKN080 14/M01 A3007 RMK AO2 SLP180 T01441006 $
KGKY 161753Z 16011KT 10SM CLR 14/00 A3009 RMK AO2 SLP187 T01440000 10144 20022 58014 $
KGKY 161653Z 15006KT 10SM CLR 12/01 A3012 RMK AO2 SLP199 T01220006 $
KGKY 161553Z 17007KT 10SM CLR 09/00 A3013 RMK AO2 SLP203 T00940000 $
KGKY 161453Z 18004KT 10SM CLR 06/M01 A3013 RMK AO2 SLP204 T00611011 58000 $
KGKY 161353Z 18006KT 10SM CLR 03/M02 A3014 RMK AO2 SLP209 T00331017 $
KGKY 161253Z 16005KT 10SM CLR 03/M02 A3014 RMK AO2 SLP207 T00331022 $
KGKY 161153Z AUTO 16004KT 10SM CLR 03/M03 A3013 RMK AO2 SLP203 T00281028 10039 20017 57010 $
KGKY 161053Z AUTO 17005KT 10SM CLR 03/M03 A3014 RMK AO2 SLP205 T00281033 $
KGKY 160953Z AUTO 16004KT 10SM CLR 02/M03 A3016 RMK AO2 SLP211 T00221033 $
KGKY 160853Z AUTO 16006KT 10SM CLR 02/M03 A3016 RMK AO2 SLP213 T00171033 56012 $
KGKY 160753Z AUTO 15003KT 10SM CLR 03/M04 A3017 RMK AO2 SLP214 T00281039 $
KGKY 160653Z AUTO 17003KT 10SM CLR 03/M04 A3018 RMK AO2 SLP217 T00331039 $
KGKY 160553Z AUTO 18005KT 10SM CLR 04/M04 A3020 RMK AO2 SLP226 T00391039 10072 21006 401281006 58007 $
KGKY 160453Z AUTO 18005KT 10SM CLR 04/M04 A3021 RMK AO2 SLP231 T00391039 $
KGKY 160353Z AUTO 18004KT 10SM CLR 01/M04 A3022 RMK AO2 SLP235 T00111039 $
KGKY 160253Z AUTO 00000KT 10SM CLR 00/M04 A3022 RMK AO2 SLP236 T00001044 58002 $
KGKY 160153Z 00000KT 10SM CLR 00/M04 A3023 RMK AO2 SLP237 T00001044 $
KGKY 160053Z 00000KT 10SM CLR 03/M04 A3023 RMK AO2 SLP239 T00331044 $
KGKY 152353Z 21003KT 10SM CLR 08/M05 A3023 RMK AO2 SLP236 T00781050 10128 20078 55002 $
KGKY 152253Z 26003KT 10SM CLR 11/M05 A3022 RMK AO2 SLP235 T01061050
KGKY 152153Z 00000KT 10SM CLR 12/M05 A3022 RMK AO2 SLP233 T01171050
KGKY 152053Z 33008KT 10SM CLR 12/M05 A3023 RMK AO2 SLP237 T01221050 56026
KGKY 151953Z VRB05KT 10SM CLR 12/M04 A3025 RMK AO2 SLP245 T01171039 $
KGKY 151853Z 31010KT 10SM CLR 12/M05 A3028 RMK AO2 SLP255 T01171050 $
KGKY 151753Z 34009KT 10SM CLR 10/M03 A3031 RMK AO2 SLP264 T01001028 10106 20017 58003 $
KGKY 151653Z 32011KT 10SM CLR 09/M01 A3032 RMK AO2 SLP267 T00941011 $
KGKY 151553Z 32011KT 10SM CLR 07/M01 A3034 RMK AO2 SLP276 T00721006 $
KGKY 151453Z 32008KT 10SM CLR 05/M01 A3032 RMK AO2 SLP268 T00501011 51016 $
KGKY 151353Z 31005KT 10SM CLR 03/M02 A3031 RMK AO2 SLP264 T00281017 $
KGKY 151253Z 31005KT 10SM CLR 03/M02 A3029 RMK AO2 SLP258 T00281022 $